Time;durP1;ratioP1;P1;durP2;ratioP2;P2;SDS_P1;SDS_P2;PMS_P1;PMS_P2;Temp;Humidity;BMP_temperature;BMP_pressure;BME280_temperature;BME280_humidity;BME280_pressure;Samples;Min_cycle;Max_cycle;Signal;HPM_P1;HPM_P2
2021/03/10 00:00:23;;;;;;;;;;;;;;;5.29;100.00;98396.25;5096414;28;19928;-80
2021/03/10 00:02:50;;;;;;;;;;;;;;;5.10;100.00;98393.94;5079980;28;19981;-80
2021/03/10 00:05:17;;;;;;;;;;;;;;;5.15;100.00;98396.31;5097075;28;19925;-80
2021/03/10 00:07:44;;;;;;;;;;;;;;;5.12;100.00;98385.22;5097070;28;19924;-81
2021/03/10 00:10:12;;;;;;;;;;;;;;;5.00;100.00;98378.19;5114938;28;20375;-80
2021/03/10 00:12:39;;;;;;;;;;;;;;;4.98;100.00;98374.25;5096304;28;19931;-80
2021/03/10 00:15:08;;;;;;;;;;;;;;;4.98;100.00;98372.25;5096778;28;20007;-81
2021/03/10 00:17:34;;;;;;;;;;;;;;;4.89;100.00;98365.59;5114595;28;20282;-80
2021/03/10 00:20:02;;;;;;;;;;;;;;;4.96;100.00;98374.66;5114645;28;19924;-80
2021/03/10 00:22:28;;;;;;;;;;;;;;;4.98;100.00;98350.09;5100361;28;19923;-81
2021/03/10 00:24:55;;;;;;;;;;;;;;;5.03;100.00;98343.34;5096633;28;19924;-81
2021/03/10 00:27:25;;;;;;;;;;;;;;;4.91;100.00;98355.69;5079518;28;19928;-80
2021/03/10 00:29:53;;;;;;;;;;;;;;;4.88;100.00;98345.44;5079505;28;20018;-81
2021/03/10 00:32:20;;;;;;;;;;;;;;;4.85;100.00;98337.13;5075461;28;19924;-80
2021/03/10 00:34:49;;;;;;;;;;;;;;;4.76;100.00;98329.28;5113520;28;19928;-80
2021/03/10 00:37:17;;;;;;;;;;;;;;;4.63;100.00;98325.38;5079185;28;20350;-80
2021/03/10 00:39:43;;;;;;;;;;;;;;;4.66;100.00;98307.97;5112806;28;19924;-81
2021/03/10 00:42:11;;;;;;;;;;;;;;;4.58;100.00;98323.03;5096471;28;19946;-81
2021/03/10 00:44:39;;;;;;;;;;;;;;;4.61;100.00;98322.22;5114330;28;19924;-82
2021/03/10 00:47:07;;;;;;;;;;;;;;;4.63;100.00;98314.31;5079164;28;19969;-82
2021/03/10 00:49:35;;;;;;;;;;;;;;;4.44;100.00;98289.13;5114343;28;19924;-82
2021/03/10 00:52:02;;;;;;;;;;;;;;;4.52;100.00;98296.97;5113865;28;19924;-81
2021/03/10 00:54:30;;;;;;;;;;;;;;;4.54;100.00;98296.56;5096202;28;19924;-80
2021/03/10 00:56:57;;;;;;;;;;;;;;;4.48;100.00;98293.44;5114522;28;19971;-80
2021/03/10 00:59:24;;;;;;;;;;;;;;;4.44;100.00;98284.34;5113935;28;20259;-80
2021/03/10 01:01:51;;;;;;;;;;;;;;;4.33;100.00;98272.53;5096072;28;20397;-79
2021/03/10 01:04:18;;;;;;;;;;;;;;;4.38;100.00;98280.44;5114957;28;20010;-80
2021/03/10 01:06:45;;;;;;;;;;;;;;;4.45;100.00;98277.66;5117714;28;19927;-79
2021/03/10 01:09:11;;;;;;;;;;;;;;;4.39;100.00;98267.41;5118510;28;19923;-80
2021/03/10 01:11:38;;;;;;;;;;;;;;;4.41;100.00;98262.25;5118869;28;19924;-80
2021/03/10 01:14:05;;;;;;;;;;;;;;;4.40;100.00;98261.47;5104322;28;19931;-80
2021/03/10 01:16:31;;;;;;;;;;;;;;;4.41;100.00;98256.72;5083395;28;19931;-79
2021/03/10 01:18:58;;;;;;;;;;;;;;;4.38;100.00;98252.78;5118436;28;19923;-80
2021/03/10 01:21:25;;;;;;;;;;;;;;;4.52;100.00;98263.78;5118021;28;19924;-80
2021/03/10 01:23:52;;;;;;;;;;;;;;;4.38;100.00;98258.31;5100012;28;19924;-79
2021/03/10 01:26:18;;;;;;;;;;;;;;;4.41;100.00;98240.91;5099748;28;19931;-80
2021/03/10 01:28:45;;;;;;;;;;;;;;;4.30;100.00;98234.63;5117937;28;19935;-80
2021/03/10 01:31:12;;;;;;;;;;;;;;;4.37;100.00;98240.13;5099900;28;19954;-80
2021/03/10 01:33:38;;;;;;;;;;;;;;;4.29;100.00;98222.00;5117670;28;19930;-80
2021/03/10 01:36:09;;;;;;;;;;;;;;;4.23;100.00;98228.34;5117603;28;20030;-80
2021/03/10 01:38:35;;;;;;;;;;;;;;;4.23;100.00;98226.38;5118156;28;19927;-79
2021/03/10 01:41:03;;;;;;;;;;;;;;;4.08;100.00;98233.16;5099640;28;19993;-80
2021/03/10 01:43:30;;;;;;;;;;;;;;;4.15;100.00;98233.09;5085242;28;19931;-79
2021/03/10 01:45:56;;;;;;;;;;;;;;;4.13;100.00;98207.84;5099374;28;20032;-80
2021/03/10 01:48:23;;;;;;;;;;;;;;;4.18;100.00;98218.47;5117502;28;19934;-80
2021/03/10 01:50:50;;;;;;;;;;;;;;;4.15;100.00;98216.53;5099234;28;19924;-80
2021/03/10 01:53:17;;;;;;;;;;;;;;;4.16;100.00;98217.31;5117609;28;19931;-80
2021/03/10 01:55:44;;;;;;;;;;;;;;;4.14;100.00;98186.50;5082473;28;19923;-80
2021/03/10 01:58:11;;;;;;;;;;;;;;;4.22;100.00;98201.88;5099320;28;19924;-79
2021/03/10 02:00:39;;;;;;;;;;;;;;;4.23;100.00;98182.13;5117341;28;19959;-79
2021/03/10 02:03:05;;;;;;;;;;;;;;;4.05;100.00;98189.72;5099004;28;19927;-79
2021/03/10 02:05:32;;;;;;;;;;;;;;;4.15;100.00;98183.34;5117001;28;19924;-80
2021/03/10 02:08:14;;;;;;;;;;;;;;;4.20;100.00;98174.63;5099036;28;20005;-80
2021/03/10 02:10:59;;;;;;;;;;;;;;;4.18;100.00;98181.78;5080923;28;19924;-80
2021/03/10 02:13:44;;;;;;;;;;;;;;;4.20;100.00;98158.03;5117139;28;19934;-79
2021/03/10 02:16:29;;;;;;;;;;;;;;;4.16;100.00;98160.06;5115823;28;20303;-80
2021/03/10 02:19:02;;;;;;;;;;;;;;;4.23;100.00;98175.78;5098663;28;19946;-80
2021/03/10 02:21:31;;;;;;;;;;;;;;;4.10;100.00;98177.47;5103719;28;20363;-80
2021/03/10 02:24:10;;;;;;;;;;;;;;;4.18;100.00;98159.66;5103310;28;19924;-79
2021/03/10 02:26:39;;;;;;;;;;;;;;;4.20;100.00;98124.06;5085735;28;19924;-80
2021/03/10 02:29:11;;;;;;;;;;;;;;;4.24;100.00;98147.75;5098935;28;20298;-80
2021/03/10 02:31:39;;;;;;;;;;;;;;;4.25;100.00;98131.94;5102898;28;19955;-80
2021/03/10 02:34:07;;;;;;;;;;;;;;;4.28;100.00;98131.16;5105618;28;19976;-79
2021/03/10 02:36:37;;;;;;;;;;;;;;;4.33;100.00;98111.38;5116445;28;19924;-79
2021/03/10 02:39:05;;;;;;;;;;;;;;;4.33;100.00;98117.66;5098288;28;20028;-79
2021/03/10 02:41:33;;;;;;;;;;;;;;;4.31;100.00;98097.94;5081195;28;19924;-79
2021/03/10 02:44:00;;;;;;;;;;;;;;;4.43;100.00;98097.47;5081734;28;19924;-79
2021/03/10 02:46:27;;;;;;;;;;;;;;;4.41;100.00;98074.94;5116017;28;19923;-79
2021/03/10 02:48:53;;;;;;;;;;;;;;;4.47;100.00;98078.84;5116296;28;19924;-79
2021/03/10 02:51:20;;;;;;;;;;;;;;;4.56;100.00;98070.88;5116494;28;19930;-79
2021/03/10 02:53:48;;;;;;;;;;;;;;;4.45;100.00;98056.38;5098227;28;19963;-80
2021/03/10 02:56:14;;;;;;;;;;;;;;;4.51;100.00;98074.09;5115993;28;19931;-79
2021/03/10 02:58:41;;;;;;;;;;;;;;;4.56;100.00;98040.44;5097746;28;19924;-80
2021/03/10 03:01:08;;;;;;;;;;;;;;;4.63;100.00;98051.47;5116179;28;19931;-80
2021/03/10 03:03:35;;;;;;;;;;;;;;;4.55;100.00;98063.78;5115946;28;20006;-79
2021/03/10 03:06:02;;;;;;;;;;;;;;;4.61;100.00;98056.63;5116173;28;19931;-79
2021/03/10 03:08:28;;;;;;;;;;;;;;;4.60;100.00;98054.25;5115891;28;20062;-80
2021/03/10 03:10:55;;;;;;;;;;;;;;;4.61;100.00;98045.56;5115870;28;19928;-80
2021/03/10 03:13:22;;;;;;;;;;;;;;;4.67;100.00;98060.53;5079838;28;19924;-79
2021/03/10 03:15:59;;;;;;;;;;;;;;;4.67;100.00;98066.06;5097555;28;19924;-79
2021/03/10 03:18:29;;;;;;;;;;;;;;;4.67;100.00;98038.38;5097159;28;20336;-79
2021/03/10 03:20:58;;;;;;;;;;;;;;;4.73;100.00;98058.88;5080593;28;19932;-79
2021/03/10 03:23:26;;;;;;;;;;;;;;;4.70;100.00;98040.34;5078060;28;19928;-79
2021/03/10 03:25:53;;;;;;;;;;;;;;;4.71;100.00;98044.66;5077034;28;20066;-80
2021/03/10 03:28:20;;;;;;;;;;;;;;;4.78;100.00;98054.91;5108243;28;19924;-80
2021/03/10 03:30:48;;;;;;;;;;;;;;;4.74;100.00;98032.78;5097241;28;19955;-79
2021/03/10 03:33:16;;;;;;;;;;;;;;;4.87;100.00;98008.94;5080310;28;20290;-80
2021/03/10 03:35:44;;;;;;;;;;;;;;;4.91;100.00;98067.00;5115014;28;19923;-79
2021/03/10 03:38:11;;;;;;;;;;;;;;;4.85;100.00;98050.06;5115596;28;19923;-79
2021/03/10 03:40:38;;;;;;;;;;;;;;;4.81;100.00;98048.53;5096862;28;20015;-80
2021/03/10 03:43:08;;;;;;;;;;;;;;;4.80;100.00;98025.59;5096162;28;19928;-80
2021/03/10 03:45:35;;;;;;;;;;;;;;;4.74;100.00;98038.31;5114187;28;19977;-79
2021/03/10 03:48:02;;;;;;;;;;;;;;;4.83;100.00;98033.09;5079351;28;19923;-79
2021/03/10 03:50:29;;;;;;;;;;;;;;;4.82;100.00;98023.22;5114154;28;19923;-79
2021/03/10 03:52:56;;;;;;;;;;;;;;;4.77;100.00;98034.72;5096542;28;20374;-79
2021/03/10 03:55:23;;;;;;;;;;;;;;;4.75;100.00;98016.97;5079921;28;20008;-79
2021/03/10 03:57:50;;;;;;;;;;;;;;;4.68;100.00;98033.66;5114766;28;19924;-79
2021/03/10 04:00:19;;;;;;;;;;;;;;;4.77;100.00;98029.19;5079532;28;19924;-79
2021/03/10 04:02:46;;;;;;;;;;;;;;;4.76;100.00;98007.47;5115001;28;20390;-79
2021/03/10 04:05:13;;;;;;;;;;;;;;;4.77;100.00;98031.19;5076659;28;20382;-79
2021/03/10 04:07:54;;;;;;;;;;;;;;;4.77;100.00;98045.78;5059779;28;20025;-80
2021/03/10 04:10:22;;;;;;;;;;;;;;;4.81;100.00;98027.19;5102605;28;19927;-79
2021/03/10 04:12:52;;;;;;;;;;;;;;;4.82;100.00;98031.53;5097070;28;19928;-79
2021/03/10 04:15:19;;;;;;;;;;;;;;;4.86;100.00;98034.25;5096548;28;19931;-79
2021/03/10 04:17:46;;;;;;;;;;;;;;;4.77;100.00;98040.25;5097131;28;20023;-79
2021/03/10 04:20:14;;;;;;;;;;;;;;;4.87;100.00;98014.47;5114570;28;19924;-79
2021/03/10 04:22:40;;;;;;;;;;;;;;;4.79;100.00;98021.28;5114504;28;19928;-79
2021/03/10 04:25:07;;;;;;;;;;;;;;;4.81;100.00;98021.66;5114662;28;19924;-80
2021/03/10 04:27:34;;;;;;;;;;;;;;;4.79;100.00;98018.50;5114711;28;19923;-79
2021/03/10 04:30:01;;;;;;;;;;;;;;;4.83;100.00;97963.13;5096120;28;19924;-79
2021/03/10 04:32:28;;;;;;;;;;;;;;;4.83;100.00;98007.41;5088737;28;19949;-79
2021/03/10 04:34:54;;;;;;;;;;;;;;;4.79;100.00;98006.63;5114379;28;19924;-79
2021/03/10 04:37:21;;;;;;;;;;;;;;;4.88;100.00;97971.75;5114476;27;19953;-79
2021/03/10 04:39:47;;;;;;;;;;;;;;;4.90;100.00;97985.19;5097413;28;19924;-79
2021/03/10 04:42:14;;;;;;;;;;;;;;;4.97;100.00;97974.81;5118606;28;20389;-79
2021/03/10 04:44:40;;;;;;;;;;;;;;;4.94;100.00;98000.56;5118417;28;20389;-80
2021/03/10 04:47:07;;;;;;;;;;;;;;;4.86;100.00;97993.50;5100424;28;19927;-79
2021/03/10 04:49:33;;;;;;;;;;;;;;;4.86;100.00;97978.91;5118489;28;19931;-79
2021/03/10 04:52:00;;;;;;;;;;;;;;;4.93;100.00;97978.81;5113060;28;19930;-80
2021/03/10 04:54:27;;;;;;;;;;;;;;;4.94;100.00;97985.91;5100579;28;19924;-79
2021/03/10 04:56:53;;;;;;;;;;;;;;;4.93;100.00;97982.38;5083127;28;19924;-79
2021/03/10 04:59:20;;;;;;;;;;;;;;;4.89;100.00;97978.84;5116735;28;19924;-79
2021/03/10 05:01:47;;;;;;;;;;;;;;;4.88;100.00;97954.34;5118214;28;19934;-79
2021/03/10 05:04:13;;;;;;;;;;;;;;;4.91;100.00;97990.31;5110245;28;19924;-79
2021/03/10 05:06:40;;;;;;;;;;;;;;;4.94;100.00;97991.47;5118071;28;19927;-79
2021/03/10 05:09:07;;;;;;;;;;;;;;;4.93;100.00;97979.63;5100401;28;19924;-80
2021/03/10 05:11:34;;;;;;;;;;;;;;;4.88;100.00;97982.81;5046849;28;20058;-79
2021/03/10 05:14:11;;;;;;;;;;;;;;;4.93;100.00;97985.16;5114829;28;19932;-80
2021/03/10 05:16:38;;;;;;;;;;;;;;;4.92;100.00;97974.50;5099033;28;19931;-80
2021/03/10 05:19:04;;;;;;;;;;;;;;;4.96;100.00;97948.34;5108289;27;19923;-80
2021/03/10 05:21:31;;;;;;;;;;;;;;;4.91;100.00;97970.94;5097508;28;20287;-80
2021/03/10 05:23:57;;;;;;;;;;;;;;;4.96;100.00;97972.47;5116981;28;20382;-79
2021/03/10 05:26:24;;;;;;;;;;;;;;;4.98;100.00;97945.94;5096340;28;19924;-79
2021/03/10 05:28:50;;;;;;;;;;;;;;;4.95;100.00;97970.91;5099659;28;19965;-80
2021/03/10 05:31:17;;;;;;;;;;;;;;;4.85;100.00;97958.75;5109120;28;20002;-79
2021/03/10 05:33:43;;;;;;;;;;;;;;;4.85;100.00;97944.91;5117380;28;19924;-79
2021/03/10 05:36:10;;;;;;;;;;;;;;;4.93;100.00;97976.06;5093707;28;20524;-80
2021/03/10 05:38:36;;;;;;;;;;;;;;;4.99;100.00;97964.13;5110699;28;20002;-79
2021/03/10 05:41:03;;;;;;;;;;;;;;;4.93;100.00;97951.94;5078909;28;19924;-80
2021/03/10 05:43:30;;;;;;;;;;;;;;;4.88;100.00;97963.44;5107244;28;19924;-80
2021/03/10 05:45:57;;;;;;;;;;;;;;;4.86;100.00;97957.53;5116998;28;19924;-79
2021/03/10 05:48:23;;;;;;;;;;;;;;;4.90;100.00;97963.03;5099328;28;20010;-80
2021/03/10 05:50:50;;;;;;;;;;;;;;;5.00;100.00;97953.81;5099141;28;19931;-79
2021/03/10 05:53:22;;;;;;;;;;;;;;;5.00;100.00;97951.84;5095449;28;19942;-79
2021/03/10 05:55:49;;;;;;;;;;;;;;;4.98;100.00;97934.09;5063670;28;19924;-79
2021/03/10 05:58:16;;;;;;;;;;;;;;;4.99;100.00;97943.97;5098939;28;19957;-80
2021/03/10 06:00:43;;;;;;;;;;;;;;;5.00;100.00;97974.00;5116830;28;19928;-80
2021/03/10 06:03:11;;;;;;;;;;;;;;;4.93;100.00;97954.72;5117529;28;19947;-79
2021/03/10 06:05:38;;;;;;;;;;;;;;;4.91;100.00;97970.94;5108580;28;20534;-80
2021/03/10 06:08:05;;;;;;;;;;;;;;;4.93;100.00;97951.94;5097821;28;19924;-80
2021/03/10 06:10:42;;;;;;;;;;;;;;;4.88;100.00;97946.06;5098816;28;20463;-80
2021/03/10 06:13:20;;;;;;;;;;;;;;;4.93;100.00;97946.41;5099650;28;19943;-79
2021/03/10 06:15:47;;;;;;;;;;;;;;;4.91;100.00;97946.03;5108234;28;20363;-79
2021/03/10 06:18:20;;;;;;;;;;;;;;;4.95;100.00;97946.00;5108063;28;19923;-80
2021/03/10 06:20:48;;;;;;;;;;;;;;;4.96;100.00;97933.72;5078285;28;19985;-79
2021/03/10 06:23:16;;;;;;;;;;;;;;;5.01;100.00;97949.88;5093821;28;19924;-79
2021/03/10 06:25:42;;;;;;;;;;;;;;;4.99;100.00;97944.75;5116452;28;19954;-80
2021/03/10 06:28:09;;;;;;;;;;;;;;;4.89;100.00;97934.56;5094581;28;20382;-80
2021/03/10 06:30:41;;;;;;;;;;;;;;;4.89;100.00;97945.63;5086860;28;19927;-80
2021/03/10 06:33:08;;;;;;;;;;;;;;;4.94;100.00;97953.50;5116803;28;19924;-80
2021/03/10 06:35:35;;;;;;;;;;;;;;;4.99;100.00;97950.28;5098145;28;19924;-80
2021/03/10 06:38:08;;;;;;;;;;;;;;;4.96;100.00;97961.38;5081776;28;20019;-79
2021/03/10 06:40:45;;;;;;;;;;;;;;;4.94;100.00;97959.03;5108672;28;20286;-80
2021/03/10 06:43:11;;;;;;;;;;;;;;;4.97;100.00;97936.06;5110785;28;19923;-80
2021/03/10 06:45:38;;;;;;;;;;;;;;;4.97;100.00;97962.94;5114972;28;19923;-80
2021/03/10 06:48:14;;;;;;;;;;;;;;;4.95;100.00;97937.69;5079225;28;19970;-79
2021/03/10 06:50:41;;;;;;;;;;;;;;;4.94;100.00;97942.44;5113804;28;19971;-78
2021/03/10 06:53:08;;;;;;;;;;;;;;;5.02;100.00;97943.94;5108322;28;20050;-82
2021/03/10 06:55:36;;;;;;;;;;;;;;;4.93;100.00;97951.94;5112455;28;19931;-83
2021/03/10 06:58:03;;;;;;;;;;;;;;;5.03;100.00;97961.31;5077204;28;19924;-82
2021/03/10 07:00:30;;;;;;;;;;;;;;;5.05;100.00;97937.56;5095905;28;19931;-81
2021/03/10 07:02:57;;;;;;;;;;;;;;;5.03;100.00;97961.31;5095298;28;19928;-81
2021/03/10 07:05:25;;;;;;;;;;;;;;;5.13;100.00;97963.97;5095389;28;19923;-82
2021/03/10 07:07:52;;;;;;;;;;;;;;;5.13;100.00;97952.09;5093543;28;19931;-81
2021/03/10 07:10:20;;;;;;;;;;;;;;;5.11;100.00;97941.44;5112438;28;20686;-80
2021/03/10 07:12:47;;;;;;;;;;;;;;;5.02;100.00;97938.38;5078027;28;19923;-80
2021/03/10 07:15:15;;;;;;;;;;;;;;;5.01;100.00;97942.34;5113862;28;19923;-80
2021/03/10 07:17:42;;;;;;;;;;;;;;;5.05;100.00;97947.84;5107013;28;20632;-81
2021/03/10 07:20:18;;;;;;;;;;;;;;;5.15;100.00;97958.78;5100919;28;19928;-80
2021/03/10 07:23:04;;;;;;;;;;;;;;;5.07;100.00;97953.75;5088952;28;19924;-81
2021/03/10 07:25:36;;;;;;;;;;;;;;;4.98;100.00;97943.16;5092057;28;19930;-83
2021/03/10 07:28:13;;;;;;;;;;;;;;;5.02;100.00;97966.06;5076888;28;19924;-84
2021/03/10 07:30:41;;;;;;;;;;;;;;;5.03;100.00;97951.03;5073652;28;19928;-79
2021/03/10 07:33:12;;;;;;;;;;;;;;;5.15;100.00;97958.03;5094503;28;20014;-79
2021/03/10 07:35:49;;;;;;;;;;;;;;;5.18;100.00;97960.72;5096108;28;19931;-80
2021/03/10 07:38:16;;;;;;;;;;;;;;;5.21;100.00;97937.75;5111455;28;20605;-79
2021/03/10 07:41:01;;;;;;;;;;;;;;;5.21;100.00;97967.44;5112018;28;19950;-79
2021/03/10 07:43:34;;;;;;;;;;;;;;;5.24;100.00;97955.53;5103382;28;19923;-80
2021/03/10 07:46:02;;;;;;;;;;;;;;;5.19;100.00;97959.53;5114961;28;20564;-80
2021/03/10 07:48:30;;;;;;;;;;;;;;;5.20;100.00;97977.72;5107659;28;19924;-79
2021/03/10 07:50:57;;;;;;;;;;;;;;;5.35;100.00;97962.50;5096958;28;19923;-79
2021/03/10 07:53:33;;;;;;;;;;;;;;;5.26;100.00;97953.13;5101399;28;19931;-79
2021/03/10 07:56:01;;;;;;;;;;;;;;;5.28;100.00;97939.66;5085088;28;19930;-79
2021/03/10 07:58:29;;;;;;;;;;;;;;;5.33;100.00;97959.34;5114889;28;19924;-78
2021/03/10 08:00:56;;;;;;;;;;;;;;;5.44;100.00;97973.84;5107234;28;19932;-78
2021/03/10 08:03:33;;;;;;;;;;;;;;;5.49;100.00;97976.16;5099419;28;19935;-77
2021/03/10 08:06:00;;;;;;;;;;;;;;;5.47;100.00;97986.88;5096260;28;19992;-78
2021/03/10 08:08:34;;;;;;;;;;;;;;;5.55;100.00;97976.47;5096693;28;19924;-78
2021/03/10 08:11:06;;;;;;;;;;;;;;;5.53;100.00;97968.59;5101303;28;20010;-78
2021/03/10 08:13:34;;;;;;;;;;;;;;;5.59;100.00;97975.22;5112991;28;19924;-78
2021/03/10 08:16:01;;;;;;;;;;;;;;;5.56;100.00;97970.53;5112631;28;19931;-78
2021/03/10 08:18:28;;;;;;;;;;;;;;;5.67;100.00;97977.91;5114387;28;19934;-78
2021/03/10 08:20:55;;;;;;;;;;;;;;;5.78;100.00;97986.84;5079126;28;19924;-78
2021/03/10 08:23:27;;;;;;;;;;;;;;;5.85;100.00;97986.78;5113125;28;19924;-77
2021/03/10 08:25:54;;;;;;;;;;;;;;;5.93;100.00;97988.25;5113012;28;19924;-78
2021/03/10 08:28:20;;;;;;;;;;;;;;;5.93;100.00;97982.69;5112952;28;19931;-78
2021/03/10 08:30:48;;;;;;;;;;;;;;;6.00;100.00;97991.69;5113006;28;19931;-78
2021/03/10 08:33:14;;;;;;;;;;;;;;;5.97;100.00;97958.50;5096045;28;19931;-78
2021/03/10 08:35:49;;;;;;;;;;;;;;;6.05;100.00;97976.56;5100686;28;19927;-79
2021/03/10 08:38:15;;;;;;;;;;;;;;;5.92;100.00;97979.16;5084205;28;20016;-79
2021/03/10 08:40:42;;;;;;;;;;;;;;;6.01;100.00;97964.78;5079256;28;19934;-79
2021/03/10 08:43:15;;;;;;;;;;;;;;;6.12;100.00;97982.03;5114340;28;19923;-79
2021/03/10 08:45:42;;;;;;;;;;;;;;;6.16;100.00;97968.88;5096371;28;19927;-79
2021/03/10 08:48:09;;;;;;;;;;;;;;;6.12;100.00;97973.72;5114389;28;20335;-79
2021/03/10 08:50:42;;;;;;;;;;;;;;;6.15;100.00;97975.66;5103295;28;19924;-79
2021/03/10 08:53:11;;;;;;;;;;;;;;;6.21;100.00;97973.97;5096054;28;19924;-79
2021/03/10 08:55:38;;;;;;;;;;;;;;;6.26;100.00;97973.47;5087656;28;20302;-78
2021/03/10 08:58:09;;;;;;;;;;;;;;;6.28;100.00;97987.72;5095689;28;20362;-77
2021/03/10 09:00:37;;;;;;;;;;;;;;;6.23;100.00;97974.31;5092621;28;19924;-77
2021/03/10 09:03:19;;;;;;;;;;;;;;;6.34;100.00;97977.72;5107918;28;20006;-76
2021/03/10 09:05:59;;;;;;;;;;;;;;;6.40;100.00;98070.34;5109807;28;19928;-76
2021/03/10 09:08:26;;;;;;;;;;;;;;;6.53;100.00;98068.53;5113476;28;19928;-78
2021/03/10 09:11:07;;;;;;;;;;;;;;;6.53;100.00;98091.53;5105960;28;19923;-78
2021/03/10 09:13:54;;;;;;;;;;;;;;;6.47;100.00;98075.78;5070315;28;20011;-78
2021/03/10 09:16:34;;;;;;;;;;;;;;;6.37;100.00;98096.16;5108675;28;20020;-78
2021/03/10 09:19:31;;;;;;;;;;;;;;;6.42;100.00;98109.56;5112966;27;20391;-78
2021/03/10 09:22:08;;;;;;;;;;;;;;;6.51;100.00;98342.94;5095423;28;19924;-77
2021/03/10 09:24:52;;;;;;;;;;;;;;;6.51;100.00;98404.78;5076349;28;20018;-76
2021/03/10 09:27:24;;;;;;;;;;;;;;;6.55;100.00;98454.69;5088225;28;19923;-78
2021/03/10 09:29:51;;;;;;;;;;;;;;;6.71;100.00;98455.72;5070114;28;19930;-77
2021/03/10 09:32:19;;;;;;;;;;;;;;;6.73;100.00;98461.66;5075436;28;20034;-77
2021/03/10 09:34:50;;;;;;;;;;;;;;;6.88;100.00;98467.84;5081479;28;19928;-77
2021/03/10 09:37:21;;;;;;;;;;;;;;;6.91;100.00;98453.13;5079918;28;19934;-77
2021/03/10 09:39:49;;;;;;;;;;;;;;;6.94;100.00;98477.28;5111531;28;19928;-80
2021/03/10 09:42:26;;;;;;;;;;;;;;;6.90;100.00;98507.09;5096991;28;19927;-79
2021/03/10 09:44:59;;;;;;;;;;;;;;;6.86;100.00;98511.91;5091228;28;20007;-78
2021/03/10 09:47:46;;;;;;;;;;;;;;;6.83;100.00;98540.50;5061064;28;19924;-78
2021/03/10 09:50:26;;;;;;;;;;;;;;;6.90;100.00;98555.13;5095989;28;20359;-77
2021/03/10 09:52:54;;;;;;;;;;;;;;;6.95;100.00;98584.44;5103050;28;19928;-79
2021/03/10 09:55:22;;;;;;;;;;;;;;;6.96;100.00;98597.91;5095409;28;20568;-80
2021/03/10 09:58:04;;;;;;;;;;;;;;;6.92;100.00;98602.69;5099367;28;20279;-80
2021/03/10 10:00:35;;;;;;;;;;;;;;;6.93;100.00;98609.03;5093371;28;19930;-84
2021/03/10 10:03:03;;;;;;;;;;;;;;;7.06;100.00;98623.97;5068993;28;19923;-79
2021/03/10 10:05:35;;;;;;;;;;;;;;;7.15;100.00;98644.53;5057959;28;19939;-82
2021/03/10 10:08:03;;;;;;;;;;;;;;;7.17;100.00;98658.81;5113076;28;19923;-79
2021/03/10 10:10:34;;;;;;;;;;;;;;;7.24;100.00;98669.88;5094155;28;19928;-80
2021/03/10 10:13:01;;;;;;;;;;;;;;;7.25;100.00;98640.88;5095126;28;20389;-81
2021/03/10 10:15:35;;;;;;;;;;;;;;;7.30;100.00;98956.47;5101064;28;19928;-80
2021/03/10 10:18:05;;;;;;;;;;;;;;;7.42;100.00;98946.88;5095257;28;20708;-81
2021/03/10 10:20:34;;;;;;;;;;;;;;;7.43;100.00;98927.03;5088987;28;20006;-80
2021/03/10 10:23:04;;;;;;;;;;;;;;;7.53;100.00;98928.94;5089625;28;20534;-78
2021/03/10 10:25:35;;;;;;;;;;;;;;;7.38;100.00;98900.44;5097652;28;19931;-81
2021/03/10 10:28:05;;;;;;;;;;;;;;;7.49;100.00;98882.91;5081334;28;19932;-78
2021/03/10 10:30:33;;;;;;;;;;;;;;;7.60;100.00;98880.84;5078063;28;20355;-80
2021/03/10 10:33:00;;;;;;;;;;;;;;;7.69;100.00;98895.06;5094460;28;19973;-83
2021/03/10 10:35:30;;;;;;;;;;;;;;;7.68;100.00;98885.16;5080265;28;20022;-80
2021/03/10 10:37:57;;;;;;;;;;;;;;;7.74;100.00;98887.06;5085593;28;20366;-82
2021/03/10 10:40:24;;;;;;;;;;;;;;;7.72;100.00;98900.63;5081806;28;20318;-83
2021/03/10 10:43:03;;;;;;;;;;;;;;;7.69;100.00;98879.19;5086960;28;20386;-80
2021/03/10 10:45:30;;;;;;;;;;;;;;;7.78;100.00;98854.50;5098037;28;19931;-78
2021/03/10 10:47:56;;;;;;;;;;;;;;;7.88;100.00;98836.91;5095369;28;19924;-78
2021/03/10 10:50:33;;;;;;;;;;;;;;;7.82;100.00;98841.31;5096973;28;20019;-75
2021/03/10 10:53:04;;;;;;;;;;;;;;;7.89;100.00;98832.91;5088568;28;19930;-75
2021/03/10 10:55:30;;;;;;;;;;;;;;;7.89;100.00;98827.34;5086906;28;20037;-76
2021/03/10 10:57:58;;;;;;;;;;;;;;;7.97;100.00;98840.00;5081641;28;20012;-77
2021/03/10 11:00:26;;;;;;;;;;;;;;;7.91;100.00;98838.06;5083257;28;20531;-76
2021/03/10 11:02:57;;;;;;;;;;;;;;;7.88;100.00;98838.88;5089262;28;19931;-77
2021/03/10 11:05:35;;;;;;;;;;;;;;;7.81;100.00;98852.88;5081414;28;20027;-77
2021/03/10 11:08:05;;;;;;;;;;;;;;;7.83;100.00;98829.00;5075710;28;20031;-76
2021/03/10 11:10:32;;;;;;;;;;;;;;;7.89;100.00;98844.03;5060439;28;20200;-76
2021/03/10 11:13:02;;;;;;;;;;;;;;;7.90;100.00;98833.72;5095326;28;19959;-76
2021/03/10 11:15:40;;;;;;;;;;;;;;;7.92;100.00;98831.31;5082877;28;19963;-76
2021/03/10 11:18:26;;;;;;;;;;;;;;;7.92;100.00;98825.75;5091348;28;20012;-76
2021/03/10 11:20:53;;;;;;;;;;;;;;;7.96;100.00;98805.03;5093242;28;19924;-77
2021/03/10 11:23:20;;;;;;;;;;;;;;;8.04;100.00;98812.09;5075334;28;20441;-77
2021/03/10 11:25:46;;;;;;;;;;;;;;;8.06;100.00;98809.69;5091412;28;19935;-75
2021/03/10 11:28:14;;;;;;;;;;;;;;;8.11;100.00;98811.25;5050535;28;19935;-77
2021/03/10 11:30:42;;;;;;;;;;;;;;;8.12;100.00;98808.03;5086521;28;19924;-78
2021/03/10 11:33:10;;;;;;;;;;;;;;;8.04;100.00;98795.41;5077510;28;20383;-79
2021/03/10 11:35:42;;;;;;;;;;;;;;;8.16;100.00;98797.69;5078705;28;20139;-77
2021/03/10 11:38:09;;;;;;;;;;;;;;;8.30;100.00;98769.72;5110832;28;19954;-79
2021/03/10 11:40:41;;;;;;;;;;;;;;;8.17;100.00;98779.78;5078042;28;19924;-78
2021/03/10 11:43:08;;;;;;;;;;;;;;;8.09;100.00;98775.47;5104333;28;19927;-77
2021/03/10 11:45:34;;;;;;;;;;;;;;;8.08;100.00;98771.13;5098320;28;19947;-76
2021/03/10 11:48:01;;;;;;;;;;;;;;;8.14;100.00;98754.75;5106347;28;19924;-76
2021/03/10 11:50:27;;;;;;;;;;;;;;;8.16;100.00;98755.94;5091110;28;20406;-78
2021/03/10 11:52:54;;;;;;;;;;;;;;;8.17;100.00;98751.16;5103035;28;19931;-80
2021/03/10 11:55:21;;;;;;;;;;;;;;;8.28;100.00;98752.66;5099751;28;19932;-76
2021/03/10 11:57:47;;;;;;;;;;;;;;;8.28;100.00;98749.88;5097244;28;19924;-78
2021/03/10 12:00:17;;;;;;;;;;;;;;;8.22;100.00;98757.09;5094721;28;20456;-77
2021/03/10 12:02:51;;;;;;;;;;;;;;;8.30;100.00;98747.44;5090701;28;19932;-76
2021/03/10 12:05:27;;;;;;;;;;;;;;;8.35;100.00;98741.41;5100165;28;19972;-75
2021/03/10 12:07:54;;;;;;;;;;;;;;;8.40;100.00;98737.38;5109171;28;19923;-77
2021/03/10 12:10:22;;;;;;;;;;;;;;;8.35;100.00;98740.63;5098215;28;19924;-80
2021/03/10 12:12:49;;;;;;;;;;;;;;;8.28;100.00;98744.31;5106731;28;19932;-77
2021/03/10 12:15:16;;;;;;;;;;;;;;;8.24;100.00;98743.53;5102542;28;19931;-76
2021/03/10 12:17:43;;;;;;;;;;;;;;;8.26;100.00;98735.56;5092455;28;19928;-77
2021/03/10 12:20:10;;;;;;;;;;;;;;;8.27;100.00;98702.97;5109298;28;20389;-76
2021/03/10 12:22:38;;;;;;;;;;;;;;;8.23;100.00;98697.44;5097036;28;20018;-75
2021/03/10 12:25:05;;;;;;;;;;;;;;;8.24;100.00;98693.44;5085482;28;19932;-76
2021/03/10 12:27:31;;;;;;;;;;;;;;;8.25;100.00;98711.72;5111499;28;19924;-76
2021/03/10 12:30:01;;;;;;;;;;;;;;;8.29;100.00;98715.25;5108025;28;20016;-75
2021/03/10 12:32:29;;;;;;;;;;;;;;;8.32;100.00;98683.81;5109277;28;19923;-76
2021/03/10 12:34:56;;;;;;;;;;;;;;;8.39;100.00;98700.41;5095323;28;19928;-76
2021/03/10 12:37:23;;;;;;;;;;;;;;;8.42;100.00;98655.03;5088611;28;19923;-76
2021/03/10 12:39:50;;;;;;;;;;;;;;;8.45;100.00;98670.13;5109269;28;19967;-76
2021/03/10 12:42:17;;;;;;;;;;;;;;;8.47;100.00;98684.38;5094287;28;20255;-76
2021/03/10 12:44:44;;;;;;;;;;;;;;;8.48;100.00;98672.84;5107809;28;19931;-77
2021/03/10 12:47:11;;;;;;;;;;;;;;;8.54;100.00;98651.66;5103580;28;19974;-76
2021/03/10 12:49:38;;;;;;;;;;;;;;;8.54;100.00;98662.81;5112440;28;20664;-76
2021/03/10 12:52:05;;;;;;;;;;;;;;;8.61;100.00;98639.66;5095777;28;19931;-76
2021/03/10 12:54:32;;;;;;;;;;;;;;;8.61;100.00;98636.84;5105583;28;19928;-77
2021/03/10 12:56:58;;;;;;;;;;;;;;;8.68;100.00;98640.31;5112896;28;19939;-76